Time;durP1;ratioP1;P1;durP2;ratioP2;P2;SDS_P1;SDS_P2;PMS_P1;PMS_P2;Temp;Humidity;BMP_temperature;BMP_pressure;BME280_temperature;BME280_humidity;BME280_pressure;Samples;Min_cycle;Max_cycle;Signal;HPM_P1;HPM_P2
2021/05/24 00:00:17;;;;;;;6.38;1.75;;;17.90;67.80;;;;;;5071070;28;20036;-64
2021/05/24 00:02:43;;;;;;;4.88;1.70;;;17.90;67.70;;;;;;5072109;28;20064;-65
2021/05/24 00:05:12;;;;;;;4.82;1.63;;;17.90;67.50;;;;;;5069346;28;20513;-63
2021/05/24 00:07:38;;;;;;;5.85;1.50;;;17.90;67.20;;;;;;5069669;28;20111;-64
2021/05/24 00:10:06;;;;;;;3.72;1.63;;;17.90;67.50;;;;;;5070812;28;20554;-63
2021/05/24 00:12:31;;;;;;;4.35;1.50;;;17.90;67.70;;;;;;5069774;28;20027;-64
2021/05/24 00:14:57;;;;;;;5.50;1.70;;;17.90;67.10;;;;;;5070837;28;20036;-63
2021/05/24 00:17:23;;;;;;;5.68;1.58;;;17.90;66.70;;;;;;5068964;28;20032;-65
2021/05/24 00:19:48;;;;;;;4.50;1.88;;;17.90;67.10;;;;;;5071310;28;20051;-64
2021/05/24 00:22:15;;;;;;;4.20;1.50;;;17.80;66.20;;;;;;5071000;28;20033;-63
2021/05/24 00:24:41;;;;;;;5.22;1.65;;;17.80;66.80;;;;;;5076885;28;20020;-64
2021/05/24 00:27:06;;;;;;;5.47;1.73;;;17.80;66.70;;;;;;5077230;28;20512;-62
2021/05/24 00:29:32;;;;;;;3.75;1.63;;;17.80;66.20;;;;;;5069239;28;20020;-62
2021/05/24 00:31:58;;;;;;;5.32;1.70;;;17.80;66.40;;;;;;5070687;28;20025;-64
2021/05/24 00:34:23;;;;;;;4.28;1.30;;;17.80;67.00;;;;;;5070587;28;20020;-62
2021/05/24 00:36:49;;;;;;;4.22;1.50;;;17.80;66.20;;;;;;5071017;28;20425;-64
2021/05/24 00:39:14;;;;;;;4.45;1.50;;;17.70;66.60;;;;;;5069035;28;20035;-64
2021/05/24 00:41:41;;;;;;;3.90;1.40;;;17.70;66.30;;;;;;5070570;28;20470;-64
2021/05/24 00:44:08;;;;;;;5.03;1.40;;;17.70;66.90;;;;;;5070501;28;20039;-64
2021/05/24 00:46:35;;;;;;;5.07;1.63;;;17.80;66.70;;;;;;5070133;28;20024;-63
2021/05/24 00:49:01;;;;;;;5.10;1.45;;;17.70;66.90;;;;;;5070483;28;20040;-63
2021/05/24 00:51:26;;;;;;;3.17;1.52;;;17.70;66.60;;;;;;5069505;28;20032;-63
2021/05/24 00:53:52;;;;;;;4.63;1.30;;;17.70;66.50;;;;;;5067997;28;20028;-63
2021/05/24 00:56:19;;;;;;;2.17;1.10;;;17.70;66.80;;;;;;5073028;28;20538;-63
2021/05/24 00:58:45;;;;;;;3.60;1.35;;;17.70;66.60;;;;;;5074052;28;20020;-63
2021/05/24 01:01:11;;;;;;;2.42;1.25;;;17.70;67.00;;;;;;5074079;28;20468;-62
2021/05/24 01:03:38;;;;;;;4.65;1.50;;;17.60;67.50;;;;;;5073847;28;20104;-62
2021/05/24 01:06:04;;;;;;;3.45;1.30;;;17.70;66.90;;;;;;5072904;28;20017;-63
2021/05/24 01:08:30;;;;;;;5.32;1.30;;;17.70;66.80;;;;;;5072336;28;20024;-64
2021/05/24 01:10:55;;;;;;;3.45;1.45;;;17.60;67.00;;;;;;5073920;28;20055;-62
2021/05/24 01:13:21;;;;;;;5.65;1.30;;;17.70;66.80;;;;;;5072144;28;20481;-60
2021/05/24 01:15:47;;;;;;;4.57;1.50;;;17.60;66.10;;;;;;5072255;28;20032;-63
2021/05/24 01:18:12;;;;;;;3.47;1.40;;;17.60;67.20;;;;;;5073610;28;20392;-64
2021/05/24 01:20:39;;;;;;;3.63;1.42;;;17.60;65.90;;;;;;5073946;28;20036;-63
2021/05/24 01:25:33;;;;;;;4.55;1.27;;;17.60;66.90;;;;;;5074722;28;20064;-63
2021/05/24 01:27:59;;;;;;;2.90;1.30;;;17.60;66.80;;;;;;5072456;28;20555;-63
2021/05/24 01:30:25;;;;;;;4.93;1.58;;;17.60;66.80;;;;;;5073116;28;20392;-64
2021/05/24 01:32:51;;;;;;;3.95;1.45;;;17.60;66.00;;;;;;5073882;28;20020;-65
2021/05/24 01:35:17;;;;;;;3.75;1.42;;;17.60;66.20;;;;;;5073300;28;20027;-63
2021/05/24 01:37:43;;;;;;;3.38;1.33;;;17.60;66.30;;;;;;5073554;28;20030;-64
2021/05/24 01:40:09;;;;;;;5.18;1.38;;;17.50;67.00;;;;;;5072914;28;20387;-63
2021/05/24 01:42:35;;;;;;;4.78;1.10;;;17.50;66.20;;;;;;5073585;28;20032;-63
2021/05/24 01:45:00;;;;;;;2.65;1.20;;;17.50;65.90;;;;;;5071840;28;20090;-62
2021/05/24 01:47:26;;;;;;;3.08;1.10;;;17.50;65.70;;;;;;5067560;28;20055;-63
2021/05/24 01:49:51;;;;;;;1.63;0.90;;;17.50;65.80;;;;;;5063890;28;20028;-63
2021/05/24 01:52:18;;;;;;;3.70;1.35;;;17.50;66.30;;;;;;5072837;28;20077;-63
2021/05/24 01:54:45;;;;;;;3.53;1.10;;;17.50;66.20;;;;;;5058221;28;20655;-64
2021/05/24 01:57:11;;;;;;;2.78;0.98;;;17.50;66.00;;;;;;5071907;28;20075;-63
2021/05/24 01:59:38;;;;;;;2.90;1.10;;;17.50;66.20;;;;;;5072772;28;20029;-63
2021/05/24 02:02:04;;;;;;;4.03;1.10;;;17.50;66.00;;;;;;5071554;28;20074;-63
2021/05/24 02:04:30;;;;;;;1.95;1.00;;;17.50;66.40;;;;;;5072451;28;20037;-63
2021/05/24 02:06:57;;;;;;;2.55;1.17;;;17.50;66.30;;;;;;5056034;28;20556;-64
2021/05/24 02:09:27;;;;;;;3.28;1.10;;;17.50;65.50;;;;;;5057103;28;20013;-63
2021/05/24 02:11:53;;;;;;;3.33;1.00;;;17.50;66.80;;;;;;5072075;28;20032;-63
2021/05/24 02:14:18;;;;;;;3.80;1.30;;;17.50;65.90;;;;;;5072574;28;20027;-63
2021/05/24 02:16:47;;;;;;;4.60;1.10;;;17.50;66.20;;;;;;5072340;28;20020;-63
2021/05/24 02:19:15;;;;;;;2.05;1.10;;;17.50;66.40;;;;;;5065815;28;20036;-62
2021/05/24 02:21:41;;;;;;;3.22;1.20;;;17.40;65.50;;;;;;5072990;28;20086;-63
2021/05/24 02:24:08;;;;;;;3.70;1.30;;;17.40;64.90;;;;;;5084110;28;20067;-63
2021/05/24 02:26:35;;;;;;;3.92;1.10;;;17.40;66.00;;;;;;5067839;28;20036;-63
2021/05/24 02:29:03;;;;;;;2.58;1.00;;;17.40;65.50;;;;;;5072327;28;20505;-62
2021/05/24 02:31:29;;;;;;;3.78;1.25;;;17.40;65.60;;;;;;5072269;28;20032;-63
2021/05/24 02:33:54;;;;;;;3.50;1.08;;;17.40;66.10;;;;;;5072170;28;20043;-63
2021/05/24 02:36:21;;;;;;;3.50;1.00;;;17.40;66.30;;;;;;5072062;28;20064;-63
2021/05/24 02:38:47;;;;;;;1.77;1.00;;;17.40;65.00;;;;;;5072170;28;20070;-63
2021/05/24 02:41:14;;;;;;;2.00;1.00;;;17.40;65.90;;;;;;5072198;28;20024;-64
2021/05/24 02:43:40;;;;;;;2.10;0.88;;;17.40;65.70;;;;;;5067485;28;20032;-63
2021/05/24 02:46:05;;;;;;;1.83;1.00;;;17.40;64.80;;;;;;5070366;28;20204;-63
2021/05/24 02:48:31;;;;;;;3.28;0.98;;;17.40;65.60;;;;;;5070586;28;20044;-64
2021/05/24 02:50:57;;;;;;;2.55;1.00;;;17.40;65.60;;;;;;5071984;28;20020;-64
2021/05/24 02:53:23;;;;;;;4.65;1.17;;;17.40;65.40;;;;;;5070556;28;20028;-62
2021/05/24 02:55:48;;;;;;;2.53;0.90;;;17.40;65.00;;;;;;5071588;28;20025;-63
2021/05/24 02:58:14;;;;;;;3.92;1.05;;;17.40;65.90;;;;;;5072038;28;20036;-63
2021/05/24 03:00:40;;;;;;;2.40;0.90;;;17.40;66.10;;;;;;5071705;28;20025;-64
2021/05/24 03:03:08;;;;;;;4.60;1.00;;;17.30;65.30;;;;;;5071913;28;20405;-63
2021/05/24 03:05:33;;;;;;;1.85;0.90;;;17.40;65.40;;;;;;5070072;28;20107;-63
2021/05/24 03:08:00;;;;;;;3.00;0.80;;;17.40;65.80;;;;;;5070750;28;20112;-64
2021/05/24 03:10:26;;;;;;;2.42;0.90;;;17.30;65.30;;;;;;5071708;28;20035;-63
2021/05/24 03:12:52;;;;;;;2.95;1.02;;;17.30;65.60;;;;;;5071048;28;20024;-63
2021/05/24 03:15:19;;;;;;;3.33;0.85;;;17.30;65.60;;;;;;5071170;28;20024;-63
2021/05/24 03:17:45;;;;;;;3.15;1.13;;;17.30;65.30;;;;;;5071193;28;20032;-64
2021/05/24 03:20:12;;;;;;;3.40;1.10;;;17.30;65.70;;;;;;5071846;28;20425;-63
2021/05/24 03:22:38;;;;;;;2.25;0.95;;;17.30;65.50;;;;;;5071092;28;20115;-63
2021/05/24 03:25:05;;;;;;;2.83;0.85;;;17.30;65.50;;;;;;5077938;28;20473;-63
2021/05/24 03:27:31;;;;;;;2.00;0.80;;;17.30;65.50;;;;;;5071663;28;20031;-63
2021/05/24 03:29:57;;;;;;;3.67;1.00;;;17.30;65.20;;;;;;5071335;28;20021;-64
2021/05/24 03:32:22;;;;;;;2.53;0.70;;;17.30;65.60;;;;;;5069799;28;20035;-63
2021/05/24 03:34:48;;;;;;;3.10;1.00;;;17.30;65.70;;;;;;5071430;28;20021;-64
2021/05/24 03:37:13;;;;;;;3.22;1.08;;;17.30;65.90;;;;;;5071236;28;20117;-64
2021/05/24 03:39:39;;;;;;;2.42;0.70;;;17.30;65.30;;;;;;5070408;28;20021;-63
2021/05/24 03:42:05;;;;;;;3.05;0.88;;;17.30;65.60;;;;;;5063493;28;20048;-64
2021/05/24 03:44:30;;;;;;;3.40;1.02;;;17.30;65.30;;;;;;5067883;28;20029;-64
2021/05/24 03:46:56;;;;;;;1.35;0.75;;;17.30;66.00;;;;;;5070858;28;20111;-65
2021/05/24 03:49:21;;;;;;;2.13;1.10;;;17.30;65.70;;;;;;5071237;28;20058;-64
2021/05/24 03:51:47;;;;;;;2.65;0.73;;;17.30;66.20;;;;;;5071029;28;20033;-65
2021/05/24 03:54:12;;;;;;;1.77;0.77;;;17.30;66.20;;;;;;5069365;28;20029;-64
2021/05/24 03:56:38;;;;;;;2.45;0.80;;;17.30;65.80;;;;;;5079643;28;20034;-63
2021/05/24 03:59:03;;;;;;;2.58;1.00;;;17.30;66.30;;;;;;5083457;28;20043;-64
2021/05/24 04:01:29;;;;;;;2.35;0.75;;;17.30;65.50;;;;;;5069512;28;20024;-63
2021/05/24 04:03:56;;;;;;;3.10;1.10;;;17.30;66.00;;;;;;5070923;28;20112;-63
2021/05/24 04:06:24;;;;;;;2.45;0.95;;;17.30;66.00;;;;;;5071327;28;20085;-64
2021/05/24 04:08:49;;;;;;;2.70;1.00;;;17.30;66.00;;;;;;5066419;28;20025;-64
2021/05/24 04:11:15;;;;;;;5.07;1.10;;;17.30;66.70;;;;;;5069732;28;20542;-65
2021/05/24 04:13:46;;;;;;;4.18;1.17;;;17.30;66.30;;;;;;5070376;28;20659;-64
2021/05/24 04:16:11;;;;;;;2.92;1.00;;;17.30;66.40;;;;;;5071008;28;20106;-63
2021/05/24 04:18:41;;;;;;;3.20;0.80;;;17.30;65.80;;;;;;5068708;28;20171;-64
2021/05/24 04:21:07;;;;;;;3.15;0.80;;;17.30;66.50;;;;;;5079408;28;20020;-64
2021/05/24 04:23:32;;;;;;;2.67;0.65;;;17.30;65.80;;;;;;5078465;28;20044;-62
2021/05/24 04:25:58;;;;;;;2.17;0.80;;;17.30;66.10;;;;;;5070815;28;20036;-64
2021/05/24 04:28:23;;;;;;;2.20;0.73;;;17.30;66.60;;;;;;5067338;28;20032;-64
2021/05/24 04:30:49;;;;;;;1.92;0.80;;;17.30;66.10;;;;;;5077520;28;20024;-65
2021/05/24 04:33:14;;;;;;;2.25;0.80;;;17.30;66.00;;;;;;5074556;28;20099;-64
2021/05/24 04:35:40;;;;;;;2.38;0.70;;;17.30;66.30;;;;;;5074182;28;20017;-64
2021/05/24 04:38:06;;;;;;;2.45;0.80;;;17.30;66.50;;;;;;5074657;28;20035;-65
2021/05/24 04:40:31;;;;;;;2.95;0.80;;;17.30;66.20;;;;;;5074347;28;20032;-65
2021/05/24 04:42:58;;;;;;;1.50;0.80;;;17.40;65.70;;;;;;5072847;28;20039;-63
2021/05/24 04:45:24;;;;;;;3.35;0.80;;;17.30;66.30;;;;;;5072979;28;20032;-64
2021/05/24 04:47:50;;;;;;;1.52;0.70;;;17.30;65.60;;;;;;5072520;28;20033;-65
2021/05/24 04:50:16;;;;;;;0.82;0.60;;;17.40;66.20;;;;;;5074248;28;20077;-65
2021/05/24 04:52:42;;;;;;;1.38;0.70;;;17.40;65.30;;;;;;5074245;28;20017;-65
2021/05/24 04:55:08;;;;;;;1.92;0.70;;;17.40;64.40;;;;;;5072382;28;20044;-65
2021/05/24 04:57:34;;;;;;;1.67;0.70;;;17.40;64.60;;;;;;5072740;28;20406;-64
2021/05/24 05:00:00;;;;;;;2.00;0.80;;;17.40;64.60;;;;;;5074298;28;20031;-65
2021/05/24 05:02:27;;;;;;;3.40;0.70;;;17.40;65.90;;;;;;5077059;28;20044;-63
2021/05/24 05:04:54;;;;;;;2.47;0.90;;;17.40;65.50;;;;;;5073610;28;20104;-63
2021/05/24 05:07:20;;;;;;;2.28;0.82;;;17.40;65.00;;;;;;5073557;28;20104;-65
2021/05/24 05:09:45;;;;;;;1.83;0.77;;;17.50;64.40;;;;;;5073802;28;20103;-64
2021/05/24 05:12:11;;;;;;;3.08;0.82;;;17.50;65.60;;;;;;5073788;28;20024;-64
2021/05/24 05:14:36;;;;;;;3.58;0.80;;;17.50;64.90;;;;;;5073626;28;20388;-64
2021/05/24 05:17:02;;;;;;;1.95;0.77;;;17.50;64.90;;;;;;5074037;28;20024;-64
2021/05/24 05:19:27;;;;;;;2.83;0.70;;;17.50;65.00;;;;;;5072895;28;20032;-63
2021/05/24 05:21:53;;;;;;;2.55;0.90;;;17.50;64.80;;;;;;5088950;28;20024;-64
2021/05/24 05:24:19;;;;;;;5.45;1.02;;;17.50;64.30;;;;;;5074890;28;20035;-65
2021/05/24 05:26:45;;;;;;;6.22;1.10;;;17.50;65.50;;;;;;5080792;28;20036;-63
2021/05/24 05:29:10;;;;;;;3.15;0.93;;;17.50;65.30;;;;;;5073423;28;20385;-64
2021/05/24 05:31:36;;;;;;;12.90;8.48;;;17.60;67.60;;;;;;5073321;28;20016;-66
2021/05/24 05:34:02;;;;;;;9.32;4.00;;;17.60;67.40;;;;;;5071690;28;20116;-66
2021/05/24 05:36:28;;;;;;;6.65;2.00;;;17.70;67.30;;;;;;5072059;28;20074;-65
2021/05/24 05:38:53;;;;;;;5.30;1.40;;;17.70;66.20;;;;;;5072038;28;20041;-64
2021/05/24 05:41:19;;;;;;;5.13;1.40;;;17.80;64.70;;;;;;5072391;28;20071;-64
2021/05/24 05:43:45;;;;;;;4.80;1.65;;;17.90;63.50;;;;;;5074287;28;20276;-65
2021/05/24 05:46:10;;;;;;;3.63;1.60;;;18.10;63.60;;;;;;5072339;28;20024;-64
2021/05/24 05:48:36;;;;;;;3.95;1.30;;;18.20;63.80;;;;;;5075247;28;20089;-66
2021/05/24 05:51:03;;;;;;;4.68;1.33;;;18.30;61.50;;;;;;5080897;28;20479;-65
2021/05/24 05:53:29;;;;;;;3.13;1.45;;;18.40;62.10;;;;;;5073707;28;20470;-67
2021/05/24 05:55:54;;;;;;;5.10;1.15;;;18.50;62.30;;;;;;5077982;28;20021;-65
2021/05/24 05:58:20;;;;;;;4.90;1.30;;;18.60;60.00;;;;;;5078304;28;20096;-66
2021/05/24 06:00:46;;;;;;;5.47;1.23;;;18.60;62.50;;;;;;5077097;28;20126;-65
2021/05/24 06:03:20;;;;;;;4.82;1.13;;;18.60;61.40;;;;;;5074577;28;20036;-67
2021/05/24 06:05:46;;;;;;;4.25;1.27;;;18.70;60.40;;;;;;5084920;28;20024;-63
2021/05/24 06:08:11;;;;;;;3.88;1.52;;;18.70;61.80;;;;;;5072165;28;20489;-66
2021/05/24 06:10:37;;;;;;;6.75;1.67;;;18.80;61.80;;;;;;5070185;28;20104;-65
2021/05/24 06:13:02;;;;;;;9.20;1.60;;;18.90;61.60;;;;;;5071918;28;20034;-65
2021/05/24 06:15:28;;;;;;;8.95;1.60;;;19.00;60.70;;;;;;5071836;28;20066;-68
2021/05/24 06:17:54;;;;;;;7.88;1.80;;;19.20;61.10;;;;;;5070484;28;20028;-66
2021/05/24 06:20:19;;;;;;;5.95;1.20;;;19.30;61.30;;;;;;5072604;28;20444;-64
2021/05/24 06:22:45;;;;;;;8.30;1.27;;;19.50;58.60;;;;;;5072927;28;20048;-65
2021/05/24 06:25:12;;;;;;;4.70;1.05;;;19.50;58.30;;;;;;5072343;28;20043;-65
2021/05/24 06:27:38;;;;;;;8.55;1.33;;;19.60;58.60;;;;;;5072092;28;20029;-64
2021/05/24 06:30:06;;;;;;;8.82;1.45;;;19.70;59.00;;;;;;5072525;28;20021;-67
2021/05/24 06:32:32;;;;;;;6.70;1.40;;;19.70;58.30;;;;;;5071435;28;20501;-64
2021/05/24 06:34:57;;;;;;;3.78;1.02;;;19.70;58.60;;;;;;5071090;28;20024;-64
2021/05/24 06:37:23;;;;;;;7.05;1.20;;;19.70;57.90;;;;;;5077218;28;20027;-65
2021/05/24 06:39:48;;;;;;;4.65;1.00;;;19.80;58.10;;;;;;5092741;28;20035;-66
2021/05/24 06:42:14;;;;;;;3.22;1.10;;;19.90;58.80;;;;;;5079815;28;20040;-64
2021/05/24 06:44:39;;;;;;;4.63;1.30;;;20.00;57.60;;;;;;5071614;28;20111;-65
2021/05/24 06:47:05;;;;;;;3.45;1.00;;;20.20;57.70;;;;;;5072200;28;20039;-65
2021/05/24 06:49:34;;;;;;;6.07;1.08;;;20.30;57.50;;;;;;5071107;28;20135;-64
2021/05/24 06:51:59;;;;;;;3.10;0.98;;;20.30;56.70;;;;;;5051680;28;20024;-64
2021/05/24 06:54:25;;;;;;;3.75;0.88;;;20.50;56.80;;;;;;5052511;28;20112;-63
2021/05/24 06:56:50;;;;;;;7.97;1.10;;;20.50;56.80;;;;;;5075469;28;20039;-63
2021/05/24 06:59:16;;;;;;;6.60;1.10;;;20.50;55.80;;;;;;5070181;28;20024;-66
2021/05/24 07:01:41;;;;;;;4.85;1.00;;;20.60;57.00;;;;;;5071667;28;20502;-63
2021/05/24 07:04:07;;;;;;;6.55;0.80;;;20.70;57.00;;;;;;5066805;28;20020;-65
2021/05/24 07:06:32;;;;;;;8.55;1.20;;;20.90;56.70;;;;;;5065283;28;20036;-67
2021/05/24 07:08:58;;;;;;;4.13;0.90;;;21.00;56.40;;;;;;5065510;28;20032;-65
2021/05/24 07:11:24;;;;;;;3.47;0.90;;;21.00;56.30;;;;;;5064410;28;20029;-66
2021/05/24 07:13:50;;;;;;;3.50;0.90;;;21.10;56.30;;;;;;5063866;28;20458;-70
2021/05/24 07:16:16;;;;;;;4.90;0.90;;;21.20;55.30;;;;;;5065301;28;20746;-65
2021/05/24 07:18:41;;;;;;;4.15;0.77;;;21.20;56.00;;;;;;5059350;28;20497;-69
2021/05/24 07:21:07;;;;;;;3.70;1.10;;;21.30;56.40;;;;;;5064550;28;20055;-69
2021/05/24 07:23:32;;;;;;;4.82;1.40;;;21.40;56.40;;;;;;5065445;28;20041;-65
2021/05/24 07:25:59;;;;;;;4.60;1.70;;;21.40;56.30;;;;;;5064494;28;20035;-68
2021/05/24 07:28:24;;;;;;;6.90;2.42;;;21.50;56.20;;;;;;5067290;28;20039;-66
2021/05/24 07:30:50;;;;;;;5.47;1.42;;;21.60;55.80;;;;;;5067208;28;20032;-66
2021/05/24 07:33:16;;;;;;;9.73;3.00;;;21.60;54.10;;;;;;5076162;28;20036;-65
2021/05/24 07:35:41;;;;;;;7.47;2.70;;;21.50;55.40;;;;;;5076382;28;20050;-65
2021/05/24 07:38:08;;;;;;;8.93;2.80;;;21.60;55.20;;;;;;5065260;28;20063;-65
2021/05/24 07:40:34;;;;;;;7.18;3.25;;;21.70;55.30;;;;;;5064762;28;20025;-66
2021/05/24 07:43:00;;;;;;;7.70;2.97;;;21.80;55.30;;;;;;5067520;28;20032;-70
2021/05/24 07:45:26;;;;;;;14.30;2.03;;;21.80;55.10;;;;;;5065676;28;20522;-65
2021/05/24 07:47:51;;;;;;;9.35;2.03;;;21.60;51.60;;;;;;5064752;28;20025;-65
2021/05/24 07:50:17;;;;;;;11.20;2.33;;;21.60;53.20;;;;;;5070490;28;20081;-65
2021/05/24 07:52:42;;;;;;;11.25;2.03;;;21.70;53.50;;;;;;5079998;28;20067;-68
2021/05/24 07:55:08;;;;;;;14.27;2.30;;;21.90;53.50;;;;;;5066931;28;20048;-65
2021/05/24 07:57:36;;;;;;;14.40;1.77;;;22.00;53.10;;;;;;5077072;28;20040;-66
2021/05/24 08:00:03;;;;;;;11.63;2.13;;;22.10;52.90;;;;;;5065706;28;20025;-64
2021/05/24 08:02:28;;;;;;;20.02;3.10;;;22.30;53.50;;;;;;5071046;28;20039;-64
2021/05/24 08:04:54;;;;;;;13.75;1.83;;;22.50;52.70;;;;;;5085046;28;20023;-71
2021/05/24 08:07:19;;;;;;;9.73;1.80;;;22.60;53.20;;;;;;5079989;28;20138;-67
2021/05/24 08:09:46;;;;;;;18.23;2.60;;;22.80;52.40;;;;;;5078858;28;20024;-65
2021/05/24 08:12:12;;;;;;;21.83;2.75;;;23.00;52.30;;;;;;5084141;28;20051;-67
2021/05/24 08:14:38;;;;;;;29.63;2.88;;;23.00;52.20;;;;;;5080355;28;20486;-70
2021/05/24 08:17:03;;;;;;;40.05;8.18;;;23.10;51.20;;;;;;5081294;28;20093;-67
2021/05/24 08:19:29;;;;;;;136.18;25.27;;;23.20;51.80;;;;;;5079480;28;20032;-69
2021/05/24 08:21:55;;;;;;;153.90;31.40;;;23.30;52.10;;;;;;5082494;28;20389;-71
2021/05/24 08:24:20;;;;;;;129.40;25.10;;;23.50;52.30;;;;;;5076589;28;20379;-70
2021/05/24 08:26:47;;;;;;;112.07;24.30;;;23.60;51.60;;;;;;5073857;28;20035;-70
2021/05/24 08:29:13;;;;;;;138.95;26.63;;;23.50;51.90;;;;;;5074659;28;20028;-71
2021/05/24 08:31:40;;;;;;;111.93;22.15;;;23.70;51.90;;;;;;5072955;28;20394;-70
2021/05/24 08:34:06;;;;;;;92.70;20.40;;;23.70;51.20;;;;;;5074548;28;20016;-70
2021/05/24 08:36:32;;;;;;;86.25;19.98;;;23.70;51.40;;;;;;5075252;28;20028;-71
2021/05/24 08:38:58;;;;;;;78.03;18.20;;;23.70;51.70;;;;;;5086025;28;20020;-68
2021/05/24 08:41:23;;;;;;;67.68;16.77;;;23.70;51.30;;;;;;5083283;28;20039;-68
2021/05/24 08:43:49;;;;;;;65.57;14.10;;;23.60;52.10;;;;;;5072989;28;20029;-69
2021/05/24 08:46:14;;;;;;;68.95;15.80;;;23.70;52.10;;;;;;5072717;28;20028;-68
2021/05/24 08:48:41;;;;;;;59.20;15.07;;;23.70;51.60;;;;;;5084329;28;20427;-71
2021/05/24 08:51:08;;;;;;;49.17;13.82;;;23.80;51.50;;;;;;5091656;28;20370;-71
2021/05/24 08:53:36;;;;;;;61.88;14.63;;;23.70;51.20;;;;;;5085710;28;20119;-71
2021/05/24 08:56:03;;;;;;;70.47;14.63;;;23.80;51.70;;;;;;5088372;28;20038;-67
2021/05/24 08:58:28;;;;;;;56.67;24.05;;;24.00;51.80;;;;;;5078083;28;20029;-63
2021/05/24 09:00:54;;;;;;;49.85;26.27;;;23.90;50.40;;;;;;5073392;28;20074;-67
2021/05/24 09:03:24;;;;;;;52.80;26.70;;;23.80;50.10;;;;;;5076490;28;20490;-65
2021/05/24 09:05:51;;;;;;;53.90;26.37;;;23.80;50.40;;;;;;5073190;28;20040;-66
2021/05/24 09:08:17;;;;;;;50.15;26.15;;;23.70;50.60;;;;;;5074474;28;20040;-64
2021/05/24 09:10:47;;;;;;;54.60;26.20;;;23.60;50.10;;;;;;5073957;28;20028;-65
2021/05/24 09:13:18;;;;;;;53.03;25.60;;;23.40;50.30;;;;;;5075385;28;20024;-66
2021/05/24 09:15:46;;;;;;;50.70;22.83;;;23.60;50.60;;;;;;5077832;28;20394;-64
2021/05/24 09:18:13;;;;;;;48.92;22.77;;;23.50;50.30;;;;;;5075160;28;20040;-67
2021/05/24 09:20:44;;;;;;;47.35;22.50;;;23.50;50.80;;;;;;5074361;28;20032;-67
2021/05/24 09:23:28;;;;;;;43.67;21.45;;;23.50;50.40;;;;;;5057653;28;20037;-66
2021/05/24 09:26:11;;;;;;;44.85;19.98;;;23.20;50.70;;;;;;5052728;28;20033;-66
2021/05/24 09:28:43;;;;;;;36.80;18.25;;;23.00;51.10;;;;;;5078087;28;20035;-65
2021/05/24 09:31:11;;;;;;;46.10;19.05;;;23.20;51.20;;;;;;5077079;28;20540;-64
2021/05/24 09:33:38;;;;;;;40.67;19.05;;;23.30;51.00;;;;;;5087789;28;20024;-64
2021/05/24 09:36:04;;;;;;;39.85;18.17;;;23.30;50.50;;;;;;5094068;28;20027;-64
2021/05/24 09:38:50;;;;;;;36.95;16.67;;;23.10;50.60;;;;;;5075299;28;20029;-64
2021/05/24 09:41:19;;;;;;;36.00;16.50;;;23.40;50.70;;;;;;5069890;28;20524;-66
2021/05/24 09:43:52;;;;;;;34.20;16.35;;;23.60;50.20;;;;;;5052686;28;20048;-63
2021/05/24 09:46:22;;;;;;;34.40;15.70;;;23.70;49.90;;;;;;5052302;28;20031;-64
2021/05/24 09:48:53;;;;;;;29.77;15.20;;;23.90;49.60;;;;;;5053488;28;20120;-64
2021/05/24 09:51:24;;;;;;;34.13;16.08;;;24.00;49.30;;;;;;5053417;28;20082;-67
2021/05/24 09:54:13;;;;;;;31.70;15.13;;;24.10;49.20;;;;;;5053354;28;20394;-64
2021/05/24 09:56:41;;;;;;;31.20;14.15;;;24.00;49.10;;;;;;5052247;28;20096;-67
2021/05/24 09:59:16;;;;;;;30.85;13.77;;;24.00;49.00;;;;;;5053449;28;20027;-67
2021/05/24 10:01:48;;;;;;;27.00;12.98;;;24.10;48.90;;;;;;5052128;28;20025;-64
2021/05/24 10:04:16;;;;;;;30.05;13.23;;;24.20;49.00;;;;;;5052914;28;20394;-64
2021/05/24 10:06:43;;;;;;;30.48;13.63;;;24.20;48.60;;;;;;5057168;28;20031;-61
2021/05/24 10:09:10;;;;;;;24.95;12.13;;;24.30;48.50;;;;;;5076078;28;20047;-63
2021/05/24 10:11:38;;;;;;;29.70;16.20;;;24.30;48.30;;;;;;5083304;28;20021;-66
2021/05/24 10:14:04;;;;;;;27.33;16.60;;;24.30;48.20;;;;;;5077350;28;20032;-64
2021/05/24 10:16:36;;;;;;;29.33;16.83;;;24.30;48.00;;;;;;5051232;28;20052;-67
2021/05/24 10:19:03;;;;;;;27.02;15.60;;;24.30;48.10;;;;;;5051951;28;20017;-65
2021/05/24 10:21:29;;;;;;;29.00;16.48;;;24.30;48.00;;;;;;5051708;28;20021;-65
2021/05/24 10:23:55;;;;;;;27.23;15.38;;;24.40;48.40;;;;;;5051602;28;20028;-65
2021/05/24 10:26:22;;;;;;;27.40;15.77;;;24.40;48.00;;;;;;5052208;28;20022;-67
2021/05/24 10:28:49;;;;;;;27.85;15.27;;;24.50;47.80;;;;;;5052528;28;20031;-64
2021/05/24 10:31:18;;;;;;;24.20;14.80;;;24.50;47.60;;;;;;5051448;28;20021;-64
2021/05/24 10:33:45;;;;;;;25.90;15.35;;;24.50;47.50;;;;;;5052453;28;20023;-65
2021/05/24 10:36:31;;;;;;;23.73;14.25;;;24.60;47.40;;;;;;5069371;28;20046;-66
2021/05/24 10:39:16;;;;;;;25.55;13.55;;;24.50;47.30;;;;;;5072627;28;20029;-65
2021/05/24 10:41:43;;;;;;;27.23;13.40;;;24.40;47.30;;;;;;5070468;28;20024;-65
2021/05/24 10:44:35;;;;;;;21.08;12.57;;;24.20;48.30;;;;;;5071472;28;20486;-64
2021/05/24 10:47:20;;;;;;;25.80;12.95;;;24.30;48.00;;;;;;5070443;28;20408;-64
2021/05/24 10:50:03;;;;;;;25.73;13.18;;;24.20;48.30;;;;;;5070342;28;20027;-67
2021/05/24 10:52:30;;;;;;;22.77;12.35;;;24.30;48.00;;;;;;5071756;28;20470;-65
2021/05/24 10:54:56;;;;;;;21.52;11.95;;;24.40;47.70;;;;;;5069930;28;20031;-67
2021/05/24 10:57:21;;;;;;;23.08;12.27;;;24.50;47.40;;;;;;5071690;28;20024;-64
2021/05/24 10:59:49;;;;;;;21.13;11.00;;;24.60;47.50;;;;;;5071781;28;20478;-64
2021/05/24 11:02:16;;;;;;;19.15;11.05;;;24.60;47.60;;;;;;5071472;28;20599;-64
2021/05/24 11:04:48;;;;;;;18.58;10.70;;;24.50;47.30;;;;;;5071328;28;20024;-64
2021/05/24 11:07:24;;;;;;;19.30;11.23;;;24.50;47.60;;;;;;5073309;28;20024;-64
2021/05/24 11:09:50;;;;;;;28.98;18.77;;;24.30;47.60;;;;;;5070697;28;20016;-66
2021/05/24 11:12:29;;;;;;;31.60;21.58;;;24.10;47.90;;;;;;5071468;28;20023;-64
2021/05/24 11:15:17;;;;;;;35.33;22.08;;;23.90;48.50;;;;;;5067019;28;20031;-64
2021/05/24 11:18:02;;;;;;;29.75;20.77;;;23.70;48.80;;;;;;5072530;28;20032;-64
2021/05/24 11:20:51;;;;;;;24.15;12.68;;;23.70;49.30;;;;;;5076847;28;20028;-65
2021/05/24 11:26:11;;;;;;;11.20;5.50;;;24.00;47.80;;;;;;5072212;28;20032;-64
2021/05/24 11:28:40;;;;;;;22.38;13.32;;;23.90;45.40;;;;;;5071167;28;20013;-63
2021/05/24 11:31:36;;;;;;;24.88;16.17;;;23.80;46.50;;;;;;5071583;28;20036;-66
2021/05/24 11:34:04;;;;;;;20.27;13.15;;;23.60;47.90;;;;;;5060267;28;20028;-64
2021/05/24 11:36:35;;;;;;;20.58;12.60;;;23.50;48.60;;;;;;5073449;28;20394;-63
2021/05/24 11:39:20;;;;;;;18.75;9.15;;;23.60;48.80;;;;;;5075482;28;20036;-64
2021/05/24 11:41:56;;;;;;;15.60;9.15;;;23.70;49.00;;;;;;5080999;28;20111;-66
2021/05/24 11:44:25;;;;;;;20.10;8.98;;;23.60;48.20;;;;;;5075920;28;20028;-65
2021/05/24 11:46:56;;;;;;;7.10;2.40;;;23.40;48.60;;;;;;5070635;28;20544;-67
2021/05/24 11:49:31;;;;;;;4.55;1.80;;;23.30;47.00;;;;;;5076892;28;20046;-65
2021/05/24 11:51:57;;;;;;;13.20;5.95;;;23.30;46.60;;;;;;5070265;28;20030;-67
2021/05/24 11:54:26;;;;;;;15.43;6.45;;;23.30;47.60;;;;;;5070329;28;20070;-67
2021/05/24 11:56:54;;;;;;;20.98;8.63;;;23.30;47.60;;;;;;5069830;28;20017;-65
2021/05/24 11:59:25;;;;;;;19.73;6.10;;;23.40;48.20;;;;;;5072824;28;20405;-65
2021/05/24 12:01:52;;;;;;;16.20;7.63;;;23.30;48.40;;;;;;5069522;28;20020;-67
2021/05/24 12:04:26;;;;;;;17.23;4.53;;;23.20;48.60;;;;;;5069668;28;20020;-65
2021/05/24 12:07:09;;;;;;;15.80;5.60;;;23.20;47.20;;;;;;5070641;28;20391;-66
2021/05/24 12:09:55;;;;;;;13.55;4.40;;;23.10;47.50;;;;;;5070111;28;20028;-65
2021/05/24 12:12:22;;;;;;;11.18;4.07;;;23.10;47.30;;;;;;5069467;28;20021;-65
2021/05/24 12:14:54;;;;;;;9.32;3.20;;;23.10;47.30;;;;;;5065401;28;20020;-65
2021/05/24 12:17:20;;;;;;;8.93;3.60;;;23.00;47.20;;;;;;5071113;28;20481;-65
2021/05/24 12:19:48;;;;;;;9.45;3.05;;;22.90;47.70;;;;;;5069158;28;20029;-66
2021/05/24 12:22:15;;;;;;;9.90;3.10;;;22.90;47.50;;;;;;5070629;28;20028;-67
2021/05/24 12:24:43;;;;;;;7.47;2.40;;;22.80;47.60;;;;;;5070230;28;20024;-64
2021/05/24 12:27:10;;;;;;;4.82;1.60;;;22.80;47.50;;;;;;5072006;28;20086;-65
2021/05/24 12:30:06;;;;;;;3.97;1.25;;;22.70;46.30;;;;;;5069041;28;20028;-65
2021/05/24 12:32:41;;;;;;;5.32;2.17;;;22.70;45.40;;;;;;5069571;28;20025;-65
2021/05/24 12:35:10;;;;;;;14.45;2.58;;;22.50;44.90;;;;;;5069570;28;20012;-66
2021/05/24 12:37:37;;;;;;;4.50;1.23;;;22.50;45.10;;;;;;5070355;28;20028;-64
2021/05/24 12:40:07;;;;;;;4.22;1.33;;;22.40;43.90;;;;;;5070165;28;20059;-65
2021/05/24 12:42:34;;;;;;;3.53;1.00;;;22.40;43.80;;;;;;5070379;28;20141;-66
2021/05/24 12:45:05;;;;;;;6.38;1.70;;;22.30;43.60;;;;;;5070194;28;20115;-65
2021/05/24 12:47:32;;;;;;;6.95;1.65;;;22.30;45.30;;;;;;5070278;28;20478;-64